Portada
METAR-TAF:

METAR-TAF

Aeroports :

Liberia, Costa Rica

latitud: 10-37N, longitud: 085-26W, altitud: 80 m

Observació

L'informe es va fer fa 39 minuts, a les 16:00 UTC
Vent 14 kt del Est/Nord-Est
Temperatura 30°C
Humitat 59%
Pressió 1012 hPa
Visibilitat 10 km o més
Núvols disperses a una alçada de 4000 ft
Núvols disperses a una alçada de 20000 ft

METAR: MRLB 191600Z 07014KT 9999 SCT040 SCT200 30/21 A2988

Hora: 10:39 (16:39 UTC)

Pronòstic

L'informe es va fer fa 5 hores i 39 minuts, a les 11:00 UTC
Pronòstic vàlid del 19 a les 12 UTC al 20 a les 12 UTC
Vent 6 kt del Est
Visibilitat 10 km o més
Escasses núvols a una alçada de 4000 ft
Temporalment
l' 19 a les 19 UTC al 19 a les 23 UTC
Vent 7 kt del Oest

TAF: MRLB 191100Z 1912/2012 09006KT 9999 FEW040 TX32/1919Z TN22/1912Z TEMPO 1919/1923 28007KT

Observacions i pronòstics meteorològics de més de 4000 aeroports (METAR i TAF).

Les estacions disponibles són els punts grocs i vermells al mapa.

Posi el ratolí al punt desitjat per veure el nom de l'estació.

Feu clic per veure les observacions i els pronòstics meteorològics.

Per canviar el mapa: feu clic els botons verds amb una creu de color negre per apropar; al botó verd amb un guió per allunyar la imatge; o en les fletxes verdes per a mapes adjacents.


METAR-TAF: